Time;durP1;ratioP1;P1;durP2;ratioP2;P2;SDS_P1;SDS_P2;PMS_P1;PMS_P2;Temp;Humidity;BMP_temperature;BMP_pressure;BME280_temperature;BME280_humidity;BME280_pressure;Samples;Min_cycle;Max_cycle;Signal;HPM_P1;HPM_P2
2023/11/24 00:02:07;;;;;;;12.20;1.93;;;;;;;6.98;97.85;99570.00;5026079;28;20215;-73
2023/11/24 00:04:34;;;;;;;8.00;2.10;;;;;;;6.98;97.42;99562.13;5026923;28;20199;-76
2023/11/24 00:07:03;;;;;;;11.23;2.03;;;;;;;6.97;97.70;99562.47;5022719;28;20220;-73
2023/11/24 00:09:31;;;;;;;16.27;2.13;;;;;;;6.98;97.05;99556.13;5024856;28;20228;-72
2023/11/24 00:11:58;;;;;;;9.30;2.07;;;;;;;6.96;97.91;99558.31;5023780;28;20279;-73
2023/11/24 00:14:25;;;;;;;11.00;1.93;;;;;;;6.97;97.00;99558.00;5024620;28;20207;-73
2023/11/24 00:16:51;;;;;;;17.73;2.23;;;;;;;6.96;97.35;99553.84;5024531;28;20274;-73
2023/11/24 00:19:17;;;;;;;12.33;1.67;;;;;;;6.98;96.37;99524.63;5042145;28;20713;-73
2023/11/24 00:21:46;;;;;;;9.70;1.57;;;;;;;6.95;96.65;99523.41;5018548;28;20197;-74
2023/11/24 00:24:13;;;;;;;16.00;1.90;;;;;;;6.93;95.88;99535.31;5024183;28;20239;-73
2023/11/24 00:26:40;;;;;;;6.57;1.40;;;;;;;6.91;96.51;99545.41;5023309;28;20226;-72
2023/11/24 00:29:07;;;;;;;14.03;2.03;;;;;;;6.90;95.00;99530.75;5025261;28;20226;-73
2023/11/24 00:31:34;;;;;;;12.17;1.90;;;;;;;6.88;95.39;99523.19;5022703;28;20233;-74
2023/11/24 00:34:01;;;;;;;10.53;2.13;;;;;;;6.89;93.47;99529.97;5028215;28;20196;-75
2023/11/24 00:36:28;;;;;;;11.07;2.10;;;;;;;6.90;94.64;99510.53;5034798;28;20302;-74
2023/11/24 00:38:54;;;;;;;10.40;1.60;;;;;;;6.89;93.29;99523.97;5035851;28;20204;-74
2023/11/24 00:41:22;;;;;;;8.93;1.80;;;;;;;6.87;92.78;99528.75;5024142;28;20203;-73
2023/11/24 00:43:50;;;;;;;6.20;1.83;;;;;;;6.86;92.49;99535.09;5027712;28;20207;-74
2023/11/24 00:46:17;;;;;;;13.20;1.80;;;;;;;6.85;92.53;99528.34;5025247;28;20211;-75
2023/11/24 00:48:44;;;;;;;18.30;2.70;;;;;;;6.83;94.37;99538.41;5026203;28;20200;-73
2023/11/24 00:51:10;;;;;;;15.13;1.87;;;;;;;6.81;91.69;99554.47;5023500;28;20613;-72
2023/11/24 00:53:37;;;;;;;21.83;2.43;;;;;;;6.80;92.81;99555.56;5036730;28;20197;-73
2023/11/24 00:56:03;;;;;;;12.47;1.90;;;;;;;6.80;92.18;99566.06;5021872;28;20230;-73
2023/11/24 00:58:30;;;;;;;14.57;2.30;;;;;;;6.83;89.52;99565.38;5037973;28;20589;-74
2023/11/24 01:01:00;;;;;;;12.03;1.67;;;;;;;6.82;90.26;99578.81;5020666;28;20200;-73
2023/11/24 01:03:27;;;;;;;16.73;2.20;;;;;;;6.80;88.99;99573.94;5034927;28;21045;-73
2023/11/24 01:05:53;;;;;;;10.63;2.40;;;;;;;6.77;89.15;99571.16;5040967;28;20231;-73
2023/11/24 01:08:20;;;;;;;10.93;1.50;;;;;;;6.76;89.45;99572.25;5036507;28;20207;-75
2023/11/24 01:10:47;;;;;;;13.60;2.50;;;;;;;6.70;91.03;99584.03;5023280;28;20742;-73
2023/11/24 01:13:13;;;;;;;10.70;1.97;;;;;;;6.67;87.17;99587.31;5022426;28;20203;-75
2023/11/24 01:15:40;;;;;;;17.23;2.10;;;;;;;6.63;88.65;99579.31;5018657;28;20644;-73
2023/11/24 01:18:08;;;;;;;8.83;2.00;;;;;;;6.55;89.91;99592.50;5039342;28;20204;-75
2023/11/24 01:20:35;;;;;;;7.17;1.77;;;;;;;6.53;87.86;99605.94;5024149;28;20192;-74
2023/11/24 01:23:01;;;;;;;10.37;2.03;;;;;;;6.50;87.88;99603.97;5019393;28;20561;-74
2023/11/24 01:25:28;;;;;;;11.27;1.77;;;;;;;6.47;88.25;99593.38;5021238;28;20215;-74
2023/11/24 01:27:55;;;;;;;17.83;2.03;;;;;;;6.47;89.15;99606.47;5038960;28;20250;-73
2023/11/24 01:30:21;;;;;;;13.60;1.83;;;;;;;6.46;91.10;99595.22;5023188;28;20231;-74
2023/11/24 01:32:48;;;;;;;16.37;2.50;;;;;;;6.48;91.96;99593.03;5023698;28;20235;-73
2023/11/24 01:35:16;;;;;;;15.23;2.50;;;;;;;6.47;90.26;99583.63;5017631;28;20231;-73
2023/11/24 01:37:43;;;;;;;7.70;1.77;;;;;;;6.46;90.90;99576.09;5018070;28;20679;-74
2023/11/24 01:40:10;;;;;;;12.27;2.20;;;;;;;6.42;90.94;99591.69;5041182;28;20371;-75
2023/11/24 01:42:37;;;;;;;10.93;2.87;;;;;;;6.42;92.55;99588.31;5034387;28;20199;-73
2023/11/24 01:45:07;;;;;;;7.13;1.67;;;;;;;6.42;89.18;99593.56;5015691;28;20350;-74
2023/11/24 01:47:33;;;;;;;10.60;1.93;;;;;;;6.38;89.71;99592.66;5040209;28;20199;-73
2023/11/24 01:50:00;;;;;;;6.20;1.60;;;;;;;6.35;92.74;99614.28;5021344;28;20219;-75
2023/11/24 01:52:28;;;;;;;5.03;1.10;;;;;;;6.27;91.91;99620.38;5018789;28;20719;-74
2023/11/24 01:54:54;;;;;;;3.23;1.30;;;;;;;6.19;92.89;99605.44;5020115;28;20593;-73
2023/11/24 01:57:22;;;;;;;3.03;1.13;;;;;;;6.09;92.48;99600.59;5037342;28;20199;-75
2023/11/24 01:59:49;;;;;;;6.33;1.93;;;;;;;6.02;92.27;99602.97;5022814;28;20231;-74
2023/11/24 02:02:15;;;;;;;6.23;1.53;;;;;;;5.91;92.76;99615.66;5021641;28;20679;-75
2023/11/24 02:04:42;;;;;;;7.87;1.67;;;;;;;5.83;93.66;99613.09;5037210;28;20203;-74
2023/11/24 02:07:09;;;;;;;10.77;1.70;;;;;;;5.74;93.41;99605.25;5020666;28;20287;-74
2023/11/24 02:09:36;;;;;;;5.60;1.07;;;;;;;5.67;93.41;99617.31;5032037;28;20223;-74
2023/11/24 02:12:03;;;;;;;7.90;1.53;;;;;;;5.62;92.62;99613.03;5023890;28;20211;-74
2023/11/24 02:14:30;;;;;;;10.53;2.40;;;;;;;5.56;93.44;99603.03;5038050;28;20196;-74
2023/11/24 02:16:59;;;;;;;6.10;1.30;;;;;;;5.50;92.99;99591.22;5039000;28;20228;-73
2023/11/24 02:19:26;;;;;;;12.07;2.03;;;;;;;5.45;92.88;99589.50;5020509;28;20987;-73
2023/11/24 02:21:53;;;;;;;9.87;1.80;;;;;;;5.41;91.50;99586.00;5021247;28;20200;-74
2023/11/24 02:24:20;;;;;;;4.83;1.40;;;;;;;5.35;91.85;99592.50;5039765;28;20298;-73
2023/11/24 02:26:47;;;;;;;5.83;1.60;;;;;;;5.29;92.06;99595.59;5034809;28;20255;-74
2023/11/24 02:29:13;;;;;;;9.53;1.40;;;;;;;5.25;92.54;99592.06;5018594;28;20208;-73
2023/11/24 02:31:40;;;;;;;5.23;1.33;;;;;;;5.20;92.63;99587.78;5037178;28;20208;-73
2023/11/24 02:34:07;;;;;;;13.27;2.00;;;;;;;5.15;92.40;99582.72;5023584;28;20204;-73
2023/11/24 02:36:36;;;;;;;8.27;1.50;;;;;;;5.14;92.62;99583.78;5038763;28;20590;-74
2023/11/24 02:39:03;;;;;;;8.20;1.83;;;;;;;5.15;93.21;99579.34;5025035;28;20219;-74
2023/11/24 02:41:32;;;;;;;12.20;2.00;;;;;;;5.17;93.01;99564.84;5025298;28;20202;-74
2023/11/24 02:43:58;;;;;;;15.10;2.47;;;;;;;5.23;92.68;99568.84;5024654;28;20192;-73
2023/11/24 02:46:24;;;;;;;9.53;1.40;;;;;;;5.22;92.88;99572.53;5038654;28;20587;-73
2023/11/24 02:48:51;;;;;;;9.53;1.50;;;;;;;5.24;93.46;99564.38;5025069;28;20236;-74
2023/11/24 02:51:18;;;;;;;11.13;1.60;;;;;;;5.25;93.24;99574.53;5020996;28;20220;-74
2023/11/24 02:53:45;;;;;;;10.90;1.80;;;;;;;5.26;93.27;99581.31;5037277;28;20204;-73
2023/11/24 02:56:12;;;;;;;4.03;1.10;;;;;;;5.26;93.24;99562.97;5024959;28;20222;-73
2023/11/24 02:58:40;;;;;;;12.10;1.93;;;;;;;5.28;93.24;99554.81;5022707;28;20753;-74
2023/11/24 03:01:06;;;;;;;12.23;1.60;;;;;;;5.29;93.71;99551.88;5021664;28;20184;-74
2023/11/24 03:03:33;;;;;;;9.57;1.70;;;;;;;5.33;93.54;99552.03;5018792;28;20204;-73
2023/11/24 03:06:01;;;;;;;11.57;2.07;;;;;;;5.32;93.07;99556.47;5034861;28;20237;-73
2023/11/24 03:08:29;;;;;;;10.17;1.57;;;;;;;5.37;93.06;99545.06;5038252;28;20237;-74
2023/11/24 03:10:55;;;;;;;9.53;1.43;;;;;;;5.39;91.58;99538.41;5019896;28;20220;-73
2023/11/24 03:13:22;;;;;;;11.30;2.13;;;;;;;5.40;91.19;99520.88;5024885;28;20203;-76
2023/11/24 03:15:51;;;;;;;14.40;1.77;;;;;;;5.41;91.67;99531.03;5034649;28;20224;-74
2023/11/24 03:18:17;;;;;;;10.73;1.80;;;;;;;5.48;89.11;99531.28;5024140;28;20811;-74
2023/11/24 03:20:45;;;;;;;11.83;1.70;;;;;;;5.53;89.09;99523.25;5026242;28;20184;-74
2023/11/24 03:23:11;;;;;;;5.50;1.30;;;;;;;5.53;88.36;99533.75;5024284;28;20287;-73
2023/11/24 03:25:37;;;;;;;7.50;1.37;;;;;;;5.56;87.67;99530.50;5021448;28;20266;-73
2023/11/24 03:28:04;;;;;;;6.50;1.47;;;;;;;5.60;87.44;99546.34;5025348;28;20202;-74
2023/11/24 03:30:31;;;;;;;9.10;1.57;;;;;;;5.63;86.04;99548.31;5027682;28;20587;-74
2023/11/24 03:32:59;;;;;;;5.53;1.50;;;;;;;5.66;86.41;99566.78;5041038;28;20692;-74
2023/11/24 03:35:25;;;;;;;12.80;2.00;;;;;;;5.67;86.34;99570.94;5044163;28;20223;-73
2023/11/24 03:37:52;;;;;;;8.43;1.40;;;;;;;5.63;87.12;99569.25;5023960;28;20572;-74
2023/11/24 03:40:18;;;;;;;5.67;1.10;;;;;;;5.58;85.05;99562.34;5022701;28;20219;-74
2023/11/24 03:42:44;;;;;;;12.30;1.33;;;;;;;5.55;84.85;99557.75;5042367;28;20679;-74
2023/11/24 03:45:11;;;;;;;11.17;1.67;;;;;;;5.53;84.98;99556.53;5040871;28;20232;-74
2023/11/24 03:47:39;;;;;;;10.07;1.60;;;;;;;5.49;85.87;99569.47;5041254;28;20204;-73
2023/11/24 03:50:07;;;;;;;8.13;1.80;;;;;;;5.46;85.23;99571.97;5022674;28;20508;-74
2023/11/24 03:52:34;;;;;;;7.80;1.70;;;;;;;5.41;86.58;99572.16;5038027;28;20211;-73
2023/11/24 03:55:01;;;;;;;9.03;1.87;;;;;;;5.41;89.30;99556.44;5023135;28;20196;-73
2023/11/24 03:57:27;;;;;;;9.53;1.37;;;;;;;5.39;85.04;99556.75;5025654;28;20200;-73
2023/11/24 03:59:53;;;;;;;10.50;1.83;;;;;;;5.35;88.96;99573.41;5031726;28;20207;-75
2023/11/24 04:02:20;;;;;;;11.07;1.47;;;;;;;5.31;85.91;99573.28;5025249;28;20207;-74
2023/11/24 04:04:47;;;;;;;3.63;1.13;;;;;;;5.30;87.80;99578.81;5025117;28;20208;-73
2023/11/24 04:07:15;;;;;;;10.20;1.80;;;;;;;5.27;86.93;99577.59;5024486;28;20728;-74
2023/11/24 04:09:41;;;;;;;12.60;1.40;;;;;;;5.30;87.74;99578.81;5039645;28;20260;-74
2023/11/24 04:12:08;;;;;;;5.23;1.47;;;;;;;5.28;87.49;99570.53;5022511;28;20290;-73
2023/11/24 04:14:34;;;;;;;14.13;1.97;;;;;;;5.29;87.13;99561.59;5030377;28;20203;-74
2023/11/24 04:17:01;;;;;;;5.97;1.07;;;;;;;5.28;87.19;99563.41;5021731;28;20589;-73
2023/11/24 04:19:27;;;;;;;7.53;1.73;;;;;;;5.28;87.89;99558.19;5025645;28;20204;-74
2023/11/24 04:21:55;;;;;;;6.60;1.33;;;;;;;5.30;88.21;99542.19;5027319;28;20294;-75
2023/11/24 04:24:23;;;;;;;11.33;1.57;;;;;;;5.29;88.26;99551.88;5041634;28;20198;-73
2023/11/24 04:26:50;;;;;;;9.53;1.40;;;;;;;5.29;88.46;99558.97;5019238;28;20219;-75
2023/11/24 04:29:16;;;;;;;10.97;1.70;;;;;;;5.30;88.68;99552.66;5022409;28;20196;-74
2023/11/24 04:31:43;;;;;;;6.33;1.43;;;;;;;5.33;87.77;99547.53;5036751;28;20219;-73
2023/11/24 04:34:10;;;;;;;7.57;1.40;;;;;;;5.33;87.68;99544.94;5021749;28;20291;-75
2023/11/24 04:36:36;;;;;;;6.43;2.07;;;;;;;5.35;87.26;99542.00;5021215;28;20258;-73
2023/11/24 04:39:03;;;;;;;10.93;2.27;;;;;;;5.35;87.38;99544.63;5017588;28;20212;-74
2023/11/24 04:41:31;;;;;;;6.47;1.30;;;;;;;5.34;87.39;99543.84;5021097;28;20198;-74
2023/11/24 04:43:58;;;;;;;16.73;1.67;;;;;;;5.34;89.07;99535.97;5027684;28;20217;-73
2023/11/24 04:46:24;;;;;;;5.17;1.47;;;;;;;5.33;88.24;99531.84;5021452;28;20534;-75
2023/11/24 04:48:50;;;;;;;8.77;1.90;;;;;;;5.32;88.16;99548.63;5020642;28;20216;-75
2023/11/24 04:51:17;;;;;;;7.70;1.83;;;;;;;5.32;88.06;99550.47;5025505;28;21451;-74
2023/11/24 04:53:43;;;;;;;7.73;1.60;;;;;;;5.29;89.43;99551.13;5024035;28;20204;-73
2023/11/24 04:56:09;;;;;;;7.27;1.47;;;;;;;5.25;88.60;99545.75;5022825;28;20570;-74
2023/11/24 04:58:37;;;;;;;4.17;1.17;;;;;;;5.16;87.67;99557.31;5019831;28;20205;-75
2023/11/24 05:01:04;;;;;;;6.07;1.27;;;;;;;5.10;87.88;99535.81;5020049;28;20200;-73
2023/11/24 05:03:31;;;;;;;6.07;1.00;;;;;;;5.01;86.92;99531.66;5022572;28;20304;-74
2023/11/24 05:05:57;;;;;;;3.20;0.93;;;;;;;4.93;87.06;99522.75;5020508;28;20223;-74
2023/11/24 05:08:23;;;;;;;5.93;1.00;;;;;;;4.84;89.18;99524.66;5025242;28;20743;-74
2023/11/24 05:10:50;;;;;;;5.07;1.23;;;;;;;4.77;89.11;99518.38;5037886;28;20216;-74
2023/11/24 05:13:16;;;;;;;4.43;1.07;;;;;;;4.70;89.03;99531.94;5020911;28;20206;-73
2023/11/24 05:15:44;;;;;;;6.80;1.17;;;;;;;4.64;89.91;99527.94;5023344;28;20689;-74
2023/11/24 05:18:10;;;;;;;4.67;1.37;;;;;;;4.60;90.46;99529.63;5021715;28;20286;-75
2023/11/24 05:20:36;;;;;;;8.87;1.10;;;;;;;4.58;91.25;99528.41;5025153;28;20206;-73
2023/11/24 05:23:03;;;;;;;8.00;1.50;;;;;;;4.56;92.13;99530.59;5025929;28;20206;-74
2023/11/24 05:25:29;;;;;;;5.07;1.13;;;;;;;4.53;92.45;99524.13;5022005;28;20215;-74
2023/11/24 05:27:56;;;;;;;6.10;1.30;;;;;;;4.53;92.82;99533.81;5020827;28;20575;-75
2023/11/24 05:30:22;;;;;;;8.83;1.20;;;;;;;4.54;92.95;99528.28;5020294;28;20568;-74
2023/11/24 05:32:50;;;;;;;6.83;1.50;;;;;;;4.55;93.00;99524.56;5022284;28;20534;-73
2023/11/24 05:35:16;;;;;;;10.87;1.23;;;;;;;4.58;93.13;99529.19;5018387;28;20231;-75
2023/11/24 05:37:42;;;;;;;4.73;1.23;;;;;;;4.60;92.85;99526.25;5037759;28;20192;-74
2023/11/24 05:40:12;;;;;;;4.87;0.90;;;;;;;4.61;92.16;99536.41;5022110;28;20212;-74
2023/11/24 05:42:38;;;;;;;5.70;1.57;;;;;;;4.60;93.38;99528.88;5041097;28;20196;-74
2023/11/24 05:45:06;;;;;;;5.30;1.40;;;;;;;4.58;91.51;99520.56;5021665;28;20675;-74
2023/11/24 05:47:33;;;;;;;2.37;0.90;;;;;;;4.52;91.20;99519.22;5020841;28;20220;-74
2023/11/24 05:50:01;;;;;;;5.90;0.90;;;;;;;4.47;90.74;99535.06;5024229;28;20206;-74
2023/11/24 05:52:27;;;;;;;4.27;1.07;;;;;;;4.40;90.79;99540.00;5027837;28;20223;-74
2023/11/24 05:54:57;;;;;;;6.90;1.13;;;;;;;4.33;91.21;99532.63;5023992;28;20215;-73
2023/11/24 05:57:23;;;;;;;6.07;1.40;;;;;;;4.22;90.99;99520.94;5021241;28;20214;-74
2023/11/24 05:59:50;;;;;;;1.77;0.60;;;;;;;4.17;91.06;99509.88;4979072;28;1086539;-74
2023/11/24 06:02:16;;;;;;;2.37;0.70;;;;;;;4.11;91.07;99513.72;5022182;28;20667;-74
2023/11/24 06:04:43;;;;;;;4.07;0.90;;;;;;;4.05;91.55;99518.31;5022600;28;20202;-73
2023/11/24 06:07:10;;;;;;;2.57;0.80;;;;;;;3.98;91.23;99512.81;5021636;28;20730;-73
2023/11/24 06:09:37;;;;;;;2.33;1.30;;;;;;;3.95;92.58;99502.22;5023368;28;20657;-73
2023/11/24 06:12:04;;;;;;;3.50;0.70;;;;;;;3.92;92.90;99505.41;5023655;28;20211;-74
2023/11/24 06:14:30;;;;;;;2.60;0.80;;;;;;;3.86;92.51;99514.47;5022678;28;20192;-74
2023/11/24 06:16:56;;;;;;;4.33;0.97;;;;;;;3.81;92.91;99514.63;5024103;28;20716;-74
2023/11/24 06:19:23;;;;;;;1.77;0.73;;;;;;;3.76;93.09;99518.16;5029824;28;20203;-74
2023/11/24 06:21:49;;;;;;;2.20;0.73;;;;;;;3.72;92.92;99514.63;5025872;28;20197;-75
2023/11/24 06:24:17;;;;;;;2.47;0.80;;;;;;;3.63;92.67;99510.47;5024150;28;20200;-74
2023/11/24 06:26:43;;;;;;;0.93;0.43;;;;;;;3.58;93.06;99521.81;5025497;28;20221;-74
2023/11/24 06:29:10;;;;;;;0.87;0.47;;;;;;;3.54;93.23;99523.53;5024410;28;20211;-74
2023/11/24 06:31:37;;;;;;;5.10;1.03;;;;;;;3.48;93.21;99519.50;5027236;28;20208;-73
2023/11/24 06:34:03;;;;;;;3.40;0.60;;;;;;;3.43;94.33;99516.28;5024167;28;20208;-74
2023/11/24 06:36:31;;;;;;;4.53;0.60;;;;;;;3.39;93.85;99525.78;5023088;28;20239;-74
2023/11/24 06:38:57;;;;;;;3.20;0.70;;;;;;;3.38;94.62;99519.03;5027224;28;20210;-74
2023/11/24 06:41:24;;;;;;;1.13;0.50;;;;;;;3.37;94.71;99525.31;5031209;28;20682;-74
2023/11/24 06:43:51;;;;;;;0.97;0.37;;;;;;;3.36;94.76;99527.16;5026049;28;20211;-73
2023/11/24 06:46:18;;;;;;;1.67;0.60;;;;;;;3.41;94.81;99534.84;5034892;28;20705;-73
2023/11/24 06:48:45;;;;;;;5.57;0.90;;;;;;;3.42;94.91;99533.75;5024781;28;20208;-74
2023/11/24 06:51:11;;;;;;;2.63;1.00;;;;;;;3.45;95.29;99538.38;5019383;28;20213;-74
2023/11/24 06:53:37;;;;;;;0.97;0.60;;;;;;;3.48;96.06;99531.78;5023729;28;20192;-73
2023/11/24 06:56:04;;;;;;;3.70;0.70;;;;;;;3.53;95.55;99526.44;5027233;28;20255;-74
2023/11/24 06:58:32;;;;;;;2.67;1.00;;;;;;;3.55;95.30;99530.28;5020504;28;20200;-74
2023/11/24 07:00:58;;;;;;;6.27;2.40;;;;;;;3.58;95.79;99537.47;5025863;28;20211;-74
2023/11/24 07:03:25;;;;;;;6.47;1.37;;;;;;;3.63;95.94;99526.88;5024254;28;20196;-74
2023/11/24 07:05:51;;;;;;;3.87;0.80;;;;;;;3.69;95.67;99514.47;5022870;28;20643;-74
2023/11/24 07:08:18;;;;;;;5.73;0.80;;;;;;;3.71;95.38;99518.31;5028664;28;20418;-74
2023/11/24 07:10:44;;;;;;;5.57;1.13;;;;;;;3.76;95.03;99520.78;5028759;28;20201;-74
2023/11/24 07:13:10;;;;;;;4.97;0.83;;;;;;;3.79;95.39;99522.75;5029899;28;20732;-74
2023/11/24 07:15:38;;;;;;;3.07;0.83;;;;;;;3.83;94.80;99522.94;5047760;28;20223;-75
2023/11/24 07:18:05;;;;;;;4.83;0.93;;;;;;;3.86;94.33;99524.94;5028828;28;20194;-74
2023/11/24 07:20:31;;;;;;;2.53;0.57;;;;;;;3.89;94.61;99521.72;5024164;28;20204;-74
2023/11/24 07:22:58;;;;;;;3.37;1.53;;;;;;;3.93;94.15;99518.19;5023634;28;20204;-74
2023/11/24 07:25:24;;;;;;;2.03;0.80;;;;;;;3.96;94.40;99507.13;5028083;28;20220;-74
2023/11/24 07:27:51;;;;;;;8.00;0.90;;;;;;;4.00;94.12;99520.34;5031150;28;20254;-74
2023/11/24 07:30:18;;;;;;;2.73;0.90;;;;;;;4.03;94.26;99504.81;5029111;28;20569;-74
2023/11/24 07:32:46;;;;;;;6.10;1.10;;;;;;;4.08;94.17;99499.44;5029295;28;20212;-74
2023/11/24 07:35:13;;;;;;;4.13;1.13;;;;;;;4.11;93.43;99493.59;5027954;28;20582;-74
2023/11/24 07:37:40;;;;;;;4.50;1.00;;;;;;;4.13;93.56;99498.50;5028954;28;20525;-74
2023/11/24 07:40:13;;;;;;;3.87;0.97;;;;;;;4.17;93.39;99502.81;5043211;28;20243;-73
2023/11/24 07:42:40;;;;;;;6.67;1.33;;;;;;;4.21;93.43;99516.03;5023418;28;20284;-74
2023/11/24 07:45:10;;;;;;;3.27;1.23;;;;;;;4.23;92.01;99492.97;5026119;28;20697;-74
2023/11/24 07:47:36;;;;;;;3.67;0.90;;;;;;;4.25;91.20;99502.03;5031327;28;20580;-73
2023/11/24 07:50:05;;;;;;;5.47;1.30;;;;;;;4.29;91.32;99496.94;5030647;28;20212;-73
2023/11/24 07:52:31;;;;;;;3.83;1.13;;;;;;;4.30;91.74;99490.66;5029940;28;20232;-73
2023/11/24 07:54:58;;;;;;;5.63;1.20;;;;;;;4.34;91.21;99487.09;5024501;28;20668;-73
2023/11/24 07:57:25;;;;;;;3.97;0.93;;;;;;;4.38;91.11;99489.88;5022959;28;20197;-73
2023/11/24 07:59:51;;;;;;;6.50;1.30;;;;;;;4.40;90.09;99485.09;5031872;28;20282;-74
2023/11/24 08:02:17;;;;;;;5.33;1.10;;;;;;;4.41;90.54;99487.38;5026881;28;20189;-73
2023/11/24 08:04:44;;;;;;;6.50;1.07;;;;;;;4.40;89.71;99479.88;5029716;28;20576;-74
2023/11/24 08:07:11;;;;;;;5.47;1.83;;;;;;;4.37;90.00;99478.66;5026751;28;20252;-74
2023/11/24 08:09:38;;;;;;;2.77;1.10;;;;;;;4.35;90.44;99480.78;5029224;28;20215;-74
2023/11/24 08:12:05;;;;;;;8.03;0.77;;;;;;;4.36;90.26;99478.97;5029500;28;20591;-73
2023/11/24 08:14:32;;;;;;;7.20;1.80;;;;;;;4.39;89.24;99473.88;5025476;28;20562;-73
2023/11/24 08:17:00;;;;;;;5.73;1.30;;;;;;;4.43;90.38;99484.47;5029275;28;20234;-73
2023/11/24 08:19:26;;;;;;;5.30;1.43;;;;;;;4.44;90.15;99473.72;5041342;28;20211;-73
2023/11/24 08:21:53;;;;;;;3.47;1.00;;;;;;;4.45;90.41;99484.94;5029771;28;20202;-73
2023/11/24 08:24:21;;;;;;;5.13;1.00;;;;;;;4.48;89.91;99474.63;5027251;28;20202;-73
2023/11/24 08:26:47;;;;;;;6.40;1.30;;;;;;;4.54;91.10;99477.81;5028580;28;20246;-73
2023/11/24 08:29:15;;;;;;;5.70;1.13;;;;;;;4.59;89.29;99481.06;5030231;28;20211;-75
2023/11/24 08:31:44;;;;;;;7.77;2.53;;;;;;;4.65;88.62;99474.56;5026343;28;20229;-73
2023/11/24 08:34:11;;;;;;;11.53;2.10;;;;;;;4.71;88.63;99468.09;5024443;28;20807;-73
2023/11/24 08:36:37;;;;;;;5.90;1.20;;;;;;;4.74;88.63;99472.69;5024763;28;20221;-73
2023/11/24 08:39:09;;;;;;;3.37;1.13;;;;;;;4.76;87.16;99478.38;5022015;28;20201;-73
2023/11/24 08:41:36;;;;;;;7.53;1.33;;;;;;;4.80;85.49;99474.06;5028276;28;20208;-73
2023/11/24 08:44:04;;;;;;;10.03;1.63;;;;;;;4.83;85.53;99470.81;5031574;28;20204;-74
2023/11/24 08:46:31;;;;;;;4.33;1.07;;;;;;;4.86;85.26;99470.19;5026887;28;20248;-74
2023/11/24 08:48:57;;;;;;;7.27;1.20;;;;;;;4.87;85.56;99474.34;5043540;28;20319;-73
2023/11/24 08:51:23;;;;;;;7.43;1.10;;;;;;;4.89;85.00;99464.34;5025265;28;20200;-73
2023/11/24 08:53:50;;;;;;;7.10;1.10;;;;;;;4.93;85.29;99464.47;5026071;28;20276;-73
2023/11/24 08:56:16;;;;;;;7.17;1.27;;;;;;;4.95;85.84;99449.22;5026687;28;20219;-73
2023/11/24 08:58:44;;;;;;;5.87;1.23;;;;;;;5.00;86.60;99456.88;5027607;28;20214;-73
2023/11/24 09:01:12;;;;;;;3.80;1.00;;;;;;;5.02;85.11;99454.75;5027272;28;20202;-73
2023/11/24 09:03:39;;;;;;;7.20;1.43;;;;;;;5.04;86.50;99449.94;5033648;28;20196;-74
2023/11/24 09:06:06;;;;;;;7.03;1.20;;;;;;;5.05;87.07;99439.19;5026403;28;20223;-73
2023/11/24 09:08:33;;;;;;;4.03;0.87;;;;;;;5.03;85.38;99445.81;5025615;28;20184;-73
2023/11/24 09:10:59;;;;;;;7.50;1.40;;;;;;;5.01;85.18;99443.50;5026290;28;20196;-74
2023/11/24 09:13:27;;;;;;;8.83;1.30;;;;;;;5.01;85.93;99443.50;5027740;28;20230;-74
2023/11/24 09:15:54;;;;;;;8.97;1.23;;;;;;;5.02;87.77;99441.66;5024021;28;20230;-73
2023/11/24 09:18:22;;;;;;;2.20;1.00;;;;;;;5.02;85.44;99439.78;5023508;28;20314;-73
2023/11/24 09:20:48;;;;;;;4.90;0.80;;;;;;;5.03;86.29;99432.72;5028215;28;20687;-73
2023/11/24 09:23:15;;;;;;;8.17;1.17;;;;;;;5.03;87.08;99441.31;5024180;28;20193;-73
2023/11/24 09:25:41;;;;;;;6.80;1.37;;;;;;;5.05;84.10;99438.41;5024021;28;20235;-73
2023/11/24 09:28:08;;;;;;;4.43;1.10;;;;;;;5.04;85.26;99434.25;5023296;28;20677;-73
2023/11/24 09:30:35;;;;;;;12.30;3.97;;;;;;;5.03;83.89;99433.47;5026502;28;20197;-73
2023/11/24 09:33:04;;;;;;;5.20;1.77;;;;;;;5.02;84.60;99436.44;5025956;28;20216;-73
2023/11/24 09:35:30;;;;;;;8.17;2.93;;;;;;;5.01;84.86;99430.41;5028683;28;20215;-74
2023/11/24 09:37:57;;;;;;;14.47;7.47;;;;;;;5.02;84.16;99420.75;5027728;28;20196;-73
2023/11/24 09:40:23;;;;;;;15.07;5.80;;;;;;;5.01;86.98;99421.78;5023646;28;20562;-73
2023/11/24 09:42:51;;;;;;;15.20;6.23;;;;;;;4.98;84.30;99415.34;5027423;28;20188;-73
2023/11/24 09:45:19;;;;;;;7.23;4.20;;;;;;;4.98;86.08;99409.38;5025421;28;20230;-73
2023/11/24 09:47:49;;;;;;;13.17;4.77;;;;;;;4.94;84.28;99404.00;5022596;28;20191;-73
2023/11/24 09:50:22;;;;;;;5.53;2.70;;;;;;;4.96;85.69;99401.81;5025692;28;20204;-73
2023/11/24 09:52:50;;;;;;;8.17;2.67;;;;;;;4.97;83.90;99405.97;5025509;28;20234;-73
2023/11/24 09:55:17;;;;;;;5.07;2.57;;;;;;;4.98;82.32;99389.19;5045325;28;20258;-73
2023/11/24 09:57:44;;;;;;;7.00;3.50;;;;;;;5.01;84.35;99393.78;5026452;28;20680;-73
2023/11/24 10:00:11;;;;;;;3.20;1.20;;;;;;;5.02;83.30;99382.25;5026983;28;20231;-73
2023/11/24 10:02:39;;;;;;;6.07;1.57;;;;;;;5.04;83.00;99374.88;5023391;28;20200;-73
2023/11/24 10:05:06;;;;;;;4.77;1.13;;;;;;;5.10;86.49;99378.81;5029930;28;20641;-73
2023/11/24 10:07:35;;;;;;;6.17;1.20;;;;;;;5.13;83.39;99370.31;5027370;28;20203;-73
2023/11/24 10:10:01;;;;;;;3.40;1.10;;;;;;;5.17;83.47;99366.00;5026362;28;20267;-73
2023/11/24 10:12:29;;;;;;;4.23;1.80;;;;;;;5.18;82.93;99361.53;5022382;28;20246;-73
2023/11/24 10:14:56;;;;;;;8.37;1.87;;;;;;;5.18;83.70;99377.97;5026174;28;20203;-73
2023/11/24 10:17:23;;;;;;;6.57;1.50;;;;;;;5.16;83.27;99366.31;5022355;28;20251;-73
2023/11/24 10:19:50;;;;;;;4.93;1.20;;;;;;;5.12;83.56;99371.41;5024575;28;20293;-73
2023/11/24 10:22:19;;;;;;;4.63;1.00;;;;;;;5.13;84.76;99359.84;5024906;28;20204;-74
2023/11/24 10:24:47;;;;;;;9.07;2.93;;;;;;;5.12;84.46;99368.78;5027300;28;20195;-73
2023/11/24 10:27:20;;;;;;;4.63;1.40;;;;;;;5.10;82.79;99362.34;5024240;28;20196;-73
2023/11/24 10:29:48;;;;;;;4.83;1.10;;;;;;;5.09;84.83;99364.22;5025744;28;20435;-74
2023/11/24 10:32:14;;;;;;;3.17;1.20;;;;;;;5.03;83.17;99368.06;5023994;28;20625;-73
2023/11/24 10:34:42;;;;;;;5.37;0.90;;;;;;;5.04;83.13;99366.25;5027434;28;20649;-74
2023/11/24 10:37:12;;;;;;;3.53;1.10;;;;;;;5.04;82.75;99355.78;5023027;28;20311;-74
2023/11/24 10:39:42;;;;;;;3.03;0.70;;;;;;;5.05;83.32;99357.31;5022728;28;20245;-73
2023/11/24 10:42:11;;;;;;;5.07;1.67;;;;;;;5.02;83.95;99350.84;5023016;28;20192;-73
2023/11/24 10:44:41;;;;;;;4.33;1.03;;;;;;;5.01;83.42;99356.41;5025829;28;20210;-73
2023/11/24 10:47:09;;;;;;;5.73;1.23;;;;;;;5.00;83.98;99360.09;5027258;28;20223;-74
2023/11/24 10:49:41;;;;;;;3.20;1.07;;;;;;;5.01;84.13;99359.78;5023513;28;20203;-74
2023/11/24 10:52:19;;;;;;;8.13;1.43;;;;;;;5.04;82.86;99364.41;5023339;28;20194;-73
2023/11/24 10:54:51;;;;;;;2.47;1.40;;;;;;;5.06;84.30;99345.75;5026982;28;20215;-74
2023/11/24 10:57:22;;;;;;;3.10;1.00;;;;;;;5.07;82.60;99342.81;5026717;28;20457;-73
2023/11/24 10:59:50;;;;;;;6.30;1.33;;;;;;;5.11;83.12;99342.94;5025746;28;20219;-73
2023/11/24 11:02:16;;;;;;;3.83;1.10;;;;;;;5.15;84.18;99346.47;5019542;28;20210;-74
2023/11/24 11:04:46;;;;;;;4.93;1.10;;;;;;;5.19;84.88;99345.50;5024774;28;20222;-73
2023/11/24 11:07:26;;;;;;;2.77;1.43;;;;;;;5.20;82.43;99336.59;5023472;28;20223;-74
2023/11/24 11:09:58;;;;;;;4.73;1.67;;;;;;;5.23;81.94;99328.06;5024017;28;20687;-73
2023/11/24 11:12:39;;;;;;;4.87;1.20;;;;;;;5.26;82.12;99316.97;5024933;28;20278;-73
2023/11/24 11:15:09;;;;;;;3.43;1.97;;;;;;;5.24;81.60;99313.91;5023415;28;20278;-73
2023/11/24 11:17:38;;;;;;;5.37;2.10;;;;;;;5.23;81.94;99312.38;5024113;28;20202;-73
2023/11/24 11:20:12;;;;;;;5.13;1.30;;;;;;;5.24;82.14;99313.16;5029731;28;20207;-74
2023/11/24 11:22:40;;;;;;;5.53;1.60;;;;;;;5.25;81.76;99314.69;5025697;28;20192;-73
2023/11/24 11:25:40;;;;;;;5.27;1.00;;;;;;;5.22;82.81;99307.44;5025528;28;20749;-74
2023/11/24 11:28:43;;;;;;;6.10;1.00;;;;;;;5.19;82.75;99303.63;5022478;28;20584;-73
2023/11/24 11:31:24;;;;;;;6.13;1.03;;;;;;;5.20;85.35;99307.78;4945812;28;20305;-73
2023/11/24 11:33:50;;;;;;;9.43;1.10;;;;;;;5.21;80.42;99292.84;4942698;28;20711;-73
2023/11/24 11:36:20;;;;;;;9.70;1.17;;;;;;;5.25;79.69;99296.34;4986066;28;20235;-74
2023/11/24 11:38:52;;;;;;;3.87;0.90;;;;;;;5.27;80.06;99289.72;5026457;28;20207;-73
2023/11/24 11:41:37;;;;;;;6.90;1.10;;;;;;;5.31;81.03;99295.84;5023283;28;20240;-74